Time;durP1;ratioP1;P1;durP2;ratioP2;P2;SDS_P1;SDS_P2;PMS_P1;PMS_P2;Temp;Humidity;BMP_temperature;BMP_pressure;BME280_temperature;BME280_humidity;BME280_pressure;Samples;Min_cycle;Max_cycle;Signal;HPM_P1;HPM_P2
2022/03/01 00:00:23;;;;;;;;;;;9.80;99.90;;;;;;4947964;29;19961;-91
2022/03/01 00:02:48;;;;;;;;;;;9.90;99.90;;;;;;4939684;29;19910;-92
2022/03/01 00:05:14;;;;;;;;;;;9.90;99.90;;;;;;4955490;28;19910;-92
2022/03/01 00:07:40;;;;;;;;;;;9.90;99.90;;;;;;4945293;28;19910;-91
2022/03/01 00:10:06;;;;;;;;;;;9.90;99.90;;;;;;4958441;28;20396;-92
2022/03/01 00:12:32;;;;;;;;;;;10.00;99.90;;;;;;4949525;29;19922;-91
2022/03/01 00:14:57;;;;;;;;;;;10.00;99.90;;;;;;4946541;28;20355;-91
2022/03/01 00:17:23;;;;;;;;;;;10.00;99.90;;;;;;4957986;28;19965;-91
2022/03/01 00:19:49;;;;;;;;;;;10.00;99.90;;;;;;4955952;28;19910;-91
2022/03/01 00:22:14;;;;;;;;;;;10.00;99.90;;;;;;4939145;29;19946;-90
2022/03/01 00:24:40;;;;;;;;;;;10.00;99.90;;;;;;4962733;28;19917;-91
2022/03/01 00:27:06;;;;;;;;;;;10.00;99.90;;;;;;4945437;29;19969;-91
2022/03/01 00:29:33;;;;;;;;;;;10.10;99.90;;;;;;4945580;28;19911;-92
2022/03/01 00:31:58;;;;;;;;;;;10.10;99.90;;;;;;4966370;28;19933;-92
2022/03/01 00:34:24;;;;;;;;;;;10.10;99.90;;;;;;4938825;29;19999;-91
2022/03/01 00:36:50;;;;;;;;;;;10.10;99.90;;;;;;4938912;29;19945;-90
2022/03/01 00:39:15;;;;;;;;;;;10.10;99.90;;;;;;4945198;29;19914;-90
2022/03/01 00:41:41;;;;;;;;;;;10.10;99.90;;;;;;4944330;28;20005;-91
2022/03/01 00:44:07;;;;;;;;;;;10.10;99.90;;;;;;4951041;28;19956;-90
2022/03/01 00:46:32;;;;;;;;;;;10.10;99.90;;;;;;4946119;29;20268;-91
2022/03/01 00:48:59;;;;;;;;;;;10.10;99.90;;;;;;4973469;28;20592;-92
2022/03/01 00:51:25;;;;;;;;;;;10.10;99.90;;;;;;4946821;29;20021;-92
2022/03/01 00:53:51;;;;;;;;;;;10.10;99.90;;;;;;4938525;29;19911;-90
2022/03/01 00:56:17;;;;;;;;;;;10.10;99.90;;;;;;4961792;28;19918;-90
2022/03/01 00:58:42;;;;;;;;;;;10.00;99.90;;;;;;4944451;29;19918;-91
2022/03/01 01:01:08;;;;;;;;;;;10.00;99.90;;;;;;4950220;29;20379;-91
2022/03/01 01:03:34;;;;;;;;;;;10.00;99.90;;;;;;4944456;28;19911;-90
2022/03/01 01:05:59;;;;;;;;;;;10.00;99.90;;;;;;4953621;28;19914;-90
2022/03/01 01:08:25;;;;;;;;;;;10.00;99.90;;;;;;4955115;28;19914;-91
2022/03/01 01:10:51;;;;;;;;;;;10.00;99.90;;;;;;4938100;29;19941;-90
2022/03/01 01:13:16;;;;;;;;;;;10.00;99.90;;;;;;4944259;28;20404;-91
2022/03/01 01:15:43;;;;;;;;;;;10.00;99.90;;;;;;4939924;28;20386;-90
2022/03/01 01:18:09;;;;;;;;;;;10.00;99.90;;;;;;4965812;28;19917;-91
2022/03/01 01:20:35;;;;;;;;;;;10.00;99.90;;;;;;4952153;28;19911;-91
2022/03/01 01:23:00;;;;;;;;;;;10.00;99.90;;;;;;4956994;28;19910;-91
2022/03/01 01:25:26;;;;;;;;;;;10.00;99.90;;;;;;4956929;28;19914;-89
2022/03/01 01:27:53;;;;;;;;;;;10.10;99.90;;;;;;4944644;28;20507;-91
2022/03/01 01:30:20;;;;;;;;;;;10.10;99.90;;;;;;4938093;29;19910;-91
2022/03/01 01:32:48;;;;;;;;;;;10.10;99.90;;;;;;4954165;28;19962;-91
2022/03/01 01:35:14;;;;;;;;;;;10.10;99.90;;;;;;4950868;28;19922;-90
2022/03/01 01:37:40;;;;;;;;;;;10.20;99.90;;;;;;4967892;28;19953;-91
2022/03/01 01:40:06;;;;;;;;;;;10.20;99.90;;;;;;4966487;28;20299;-90
2022/03/01 01:42:32;;;;;;;;;;;10.20;99.90;;;;;;4938202;29;19998;-92
2022/03/01 01:44:59;;;;;;;;;;;10.20;99.90;;;;;;4949921;28;20012;-92
2022/03/01 01:47:25;;;;;;;;;;;10.30;99.90;;;;;;4950583;28;19966;-90
2022/03/01 01:49:50;;;;;;;;;;;10.30;99.90;;;;;;4956006;28;19918;-90
2022/03/01 01:52:16;;;;;;;;;;;10.40;99.90;;;;;;4948989;28;19918;-91
2022/03/01 01:54:42;;;;;;;;;;;10.40;99.90;;;;;;4939488;29;19914;-92
2022/03/01 01:57:18;;;;;;;;;;;10.40;99.90;;;;;;4941477;28;20452;-91
2022/03/01 01:59:44;;;;;;;;;;;10.50;99.90;;;;;;4951457;29;19910;-91
2022/03/01 02:02:13;;;;;;;;;;;10.50;99.90;;;;;;4937851;29;20409;-91
2022/03/01 02:04:40;;;;;;;;;;;10.50;99.90;;;;;;4944157;29;19911;-91
2022/03/01 02:07:06;;;;;;;;;;;10.50;99.90;;;;;;4961198;28;20459;-92
2022/03/01 02:09:32;;;;;;;;;;;10.50;99.90;;;;;;4942060;28;19910;-91
2022/03/01 02:11:57;;;;;;;;;;;10.50;99.90;;;;;;4961947;28;20272;-91
2022/03/01 02:14:23;;;;;;;;;;;10.50;99.90;;;;;;4960513;28;19918;-91
2022/03/01 02:16:49;;;;;;;;;;;10.50;99.90;;;;;;4943247;29;19917;-90
2022/03/01 02:19:14;;;;;;;;;;;10.50;99.90;;;;;;4953644;29;19910;-91
2022/03/01 02:21:47;;;;;;;;;;;10.50;99.90;;;;;;4975615;28;19957;-90
2022/03/01 02:24:12;;;;;;;;;;;10.50;99.90;;;;;;4957505;29;20438;-90
2022/03/01 02:26:38;;;;;;;;;;;10.50;99.90;;;;;;4944323;28;19957;-91
2022/03/01 02:29:04;;;;;;;;;;;10.50;99.90;;;;;;4969302;28;19946;-91
2022/03/01 02:31:30;;;;;;;;;;;10.50;99.90;;;;;;4970475;28;19918;-92
2022/03/01 02:33:57;;;;;;;;;;;10.50;99.90;;;;;;4953303;28;20347;-92
2022/03/01 02:36:22;;;;;;;;;;;10.50;99.90;;;;;;4946958;28;19912;-91
2022/03/01 02:38:48;;;;;;;;;;;10.50;99.90;;;;;;4951465;29;20282;-91
2022/03/01 02:41:14;;;;;;;;;;;10.50;99.90;;;;;;4940988;29;20364;-91
2022/03/01 02:43:39;;;;;;;;;;;10.60;99.90;;;;;;4943033;28;19910;-91
2022/03/01 02:46:05;;;;;;;;;;;10.60;99.90;;;;;;4946693;29;19946;-92
2022/03/01 02:48:31;;;;;;;;;;;10.50;99.90;;;;;;4949125;28;19973;-90
2022/03/01 02:50:56;;;;;;;;;;;10.50;99.90;;;;;;4953260;29;19919;-90
2022/03/01 02:53:22;;;;;;;;;;;10.50;99.90;;;;;;4941206;29;19918;-91
2022/03/01 02:55:48;;;;;;;;;;;10.50;99.90;;;;;;4964265;28;20003;-91
2022/03/01 02:58:13;;;;;;;;;;;10.50;99.90;;;;;;4957654;29;19958;-91
2022/03/01 03:00:39;;;;;;;;;;;10.50;99.90;;;;;;4953696;29;19910;-90
2022/03/01 03:03:04;;;;;;;;;;;10.40;99.90;;;;;;4959277;28;20375;-91
2022/03/01 03:05:30;;;;;;;;;;;10.40;99.90;;;;;;4970266;28;19921;-91
2022/03/01 03:07:55;;;;;;;;;;;10.40;99.90;;;;;;4953189;28;19914;-91
2022/03/01 03:10:21;;;;;;;;;;;10.40;99.90;;;;;;4959189;28;20287;-91
2022/03/01 03:12:47;;;;;;;;;;;10.40;99.90;;;;;;4944895;28;20021;-90
2022/03/01 03:15:12;;;;;;;;;;;10.40;99.90;;;;;;4959594;28;19910;-90
2022/03/01 03:17:38;;;;;;;;;;;10.40;99.90;;;;;;4948851;29;19942;-91
2022/03/01 03:20:04;;;;;;;;;;;10.40;99.90;;;;;;4952819;29;20391;-90
2022/03/01 03:22:29;;;;;;;;;;;10.40;99.90;;;;;;4945978;28;19910;-91
2022/03/01 03:24:55;;;;;;;;;;;10.40;99.90;;;;;;4959997;28;20019;-90
2022/03/01 03:27:21;;;;;;;;;;;10.40;99.90;;;;;;4943681;29;19973;-90
2022/03/01 03:29:46;;;;;;;;;;;10.40;99.90;;;;;;4940197;29;20503;-91
2022/03/01 03:32:12;;;;;;;;;;;10.40;99.90;;;;;;4957340;29;19918;-91
2022/03/01 03:34:37;;;;;;;;;;;10.30;99.90;;;;;;4939880;29;19923;-91
2022/03/01 03:37:04;;;;;;;;;;;10.30;99.90;;;;;;4940320;29;19910;-91
2022/03/01 03:39:29;;;;;;;;;;;10.20;99.90;;;;;;4940907;28;19957;-91
2022/03/01 03:41:55;;;;;;;;;;;10.20;99.90;;;;;;4951433;28;19946;-91
2022/03/01 03:44:20;;;;;;;;;;;10.20;99.90;;;;;;4952732;28;20521;-90
2022/03/01 03:46:46;;;;;;;;;;;10.20;99.90;;;;;;4952032;28;19914;-90
2022/03/01 03:49:12;;;;;;;;;;;10.20;99.90;;;;;;4939859;29;20001;-91
2022/03/01 03:51:37;;;;;;;;;;;10.20;99.90;;;;;;4959158;28;20316;-90
2022/03/01 03:54:03;;;;;;;;;;;10.20;99.90;;;;;;4940131;29;19938;-91
2022/03/01 03:56:29;;;;;;;;;;;10.20;99.90;;;;;;4969792;28;20019;-89
2022/03/01 03:58:55;;;;;;;;;;;10.20;99.90;;;;;;4939573;29;19966;-91
2022/03/01 04:01:21;;;;;;;;;;;10.30;99.90;;;;;;4939505;29;19910;-91
2022/03/01 04:03:47;;;;;;;;;;;10.30;99.90;;;;;;4957104;28;19918;-90
2022/03/01 04:06:13;;;;;;;;;;;10.30;99.90;;;;;;4944942;28;19917;-91
2022/03/01 04:08:38;;;;;;;;;;;10.30;99.90;;;;;;4952092;28;19917;-90
2022/03/01 04:11:04;;;;;;;;;;;10.30;99.90;;;;;;4944983;28;19915;-90
2022/03/01 04:13:29;;;;;;;;;;;10.20;99.90;;;;;;4957997;28;19914;-91
2022/03/01 04:15:55;;;;;;;;;;;10.20;99.90;;;;;;4962615;28;19910;-90
2022/03/01 04:18:21;;;;;;;;;;;10.20;99.90;;;;;;4946777;28;19980;-92
2022/03/01 04:20:46;;;;;;;;;;;10.10;99.90;;;;;;4966252;28;19958;-91
2022/03/01 04:23:13;;;;;;;;;;;10.10;99.90;;;;;;4938832;29;19911;-91
2022/03/01 04:25:39;;;;;;;;;;;10.10;99.90;;;;;;4945054;28;20286;-91
2022/03/01 04:28:04;;;;;;;;;;;10.20;99.90;;;;;;4947526;28;19974;-90
2022/03/01 04:30:30;;;;;;;;;;;10.10;99.90;;;;;;4958913;28;20283;-91
2022/03/01 04:32:55;;;;;;;;;;;10.10;99.90;;;;;;4956703;28;19921;-90
2022/03/01 04:35:21;;;;;;;;;;;10.10;99.90;;;;;;4938783;28;19961;-91
2022/03/01 04:37:47;;;;;;;;;;;10.10;99.90;;;;;;4951536;28;19945;-91
2022/03/01 04:40:13;;;;;;;;;;;10.20;99.90;;;;;;4951332;29;19910;-90
2022/03/01 04:42:39;;;;;;;;;;;10.10;99.90;;;;;;4945319;28;19914;-91
2022/03/01 04:45:05;;;;;;;;;;;10.10;99.90;;;;;;4956249;29;19965;-91
2022/03/01 04:47:31;;;;;;;;;;;10.20;99.90;;;;;;4951657;28;19910;-91
2022/03/01 04:49:57;;;;;;;;;;;10.20;99.90;;;;;;4951997;29;19917;-92
2022/03/01 04:52:22;;;;;;;;;;;10.10;99.90;;;;;;4945046;29;20000;-91
2022/03/01 04:54:48;;;;;;;;;;;10.20;99.90;;;;;;4938333;29;19910;-90
2022/03/01 04:57:14;;;;;;;;;;;10.20;99.90;;;;;;4944769;29;20475;-91
2022/03/01 04:59:39;;;;;;;;;;;10.10;99.90;;;;;;4955838;28;19917;-92
2022/03/01 05:02:05;;;;;;;;;;;10.10;99.90;;;;;;4951544;28;19958;-90
2022/03/01 05:04:30;;;;;;;;;;;10.10;99.90;;;;;;4958953;28;19911;-90
2022/03/01 05:06:56;;;;;;;;;;;10.10;99.90;;;;;;4953689;29;19922;-91
2022/03/01 05:09:22;;;;;;;;;;;10.10;99.90;;;;;;4938502;29;19957;-90
2022/03/01 05:11:49;;;;;;;;;;;10.10;99.90;;;;;;4948583;28;19925;-91
2022/03/01 05:14:15;;;;;;;;;;;10.10;99.90;;;;;;4942191;28;19949;-90
2022/03/01 05:16:40;;;;;;;;;;;10.10;99.90;;;;;;4958124;28;19914;-91
2022/03/01 05:19:07;;;;;;;;;;;10.10;99.90;;;;;;4956909;28;19910;-90
2022/03/01 05:21:32;;;;;;;;;;;10.20;99.90;;;;;;4950601;28;19910;-90
2022/03/01 05:23:58;;;;;;;;;;;10.20;99.90;;;;;;4950685;28;19968;-90
2022/03/01 05:26:24;;;;;;;;;;;10.20;99.90;;;;;;4955672;28;19910;-90
2022/03/01 05:28:49;;;;;;;;;;;10.10;99.90;;;;;;4945051;28;19911;-90
2022/03/01 05:31:17;;;;;;;;;;;10.10;99.90;;;;;;4957708;28;19918;-92
2022/03/01 05:33:43;;;;;;;;;;;10.10;99.90;;;;;;4950028;28;19910;-92
2022/03/01 05:36:09;;;;;;;;;;;10.10;99.90;;;;;;4973719;28;19910;-91
2022/03/01 05:38:36;;;;;;;;;;;10.10;99.90;;;;;;4951563;28;19910;-90
2022/03/01 05:41:02;;;;;;;;;;;10.10;99.90;;;;;;4957338;28;19918;-91
2022/03/01 05:43:27;;;;;;;;;;;10.20;99.90;;;;;;4944239;29;19974;-91
2022/03/01 05:45:53;;;;;;;;;;;10.20;99.90;;;;;;4957668;28;19957;-91
2022/03/01 05:48:20;;;;;;;;;;;10.10;99.90;;;;;;4961114;28;19914;-91
2022/03/01 05:50:46;;;;;;;;;;;10.10;99.90;;;;;;4971739;28;19917;-91
2022/03/01 05:53:12;;;;;;;;;;;10.10;99.90;;;;;;4960884;28;20310;-90
2022/03/01 05:55:37;;;;;;;;;;;10.10;99.90;;;;;;4960564;28;19918;-91
2022/03/01 05:58:03;;;;;;;;;;;10.10;99.90;;;;;;4955770;29;20005;-92
2022/03/01 06:00:28;;;;;;;;;;;10.00;99.90;;;;;;4959223;28;19914;-91
2022/03/01 06:02:54;;;;;;;;;;;9.90;99.90;;;;;;4961127;28;19910;-91
2022/03/01 06:05:20;;;;;;;;;;;9.90;99.90;;;;;;4950074;29;19918;-91
2022/03/01 06:07:45;;;;;;;;;;;10.00;99.90;;;;;;4959939;28;19910;-91
2022/03/01 06:10:11;;;;;;;;;;;10.00;99.90;;;;;;5009334;23;20399;-90
2022/03/01 06:12:37;;;;;;;;;;;10.00;99.90;;;;;;4959668;28;19960;-90
2022/03/01 06:15:03;;;;;;;;;;;10.10;99.90;;;;;;4956869;28;19921;-91
2022/03/01 06:17:29;;;;;;;;;;;10.00;99.90;;;;;;4947511;28;19917;-91
2022/03/01 06:19:54;;;;;;;;;;;10.10;99.90;;;;;;4941228;28;19911;-91
2022/03/01 06:22:22;;;;;;;;;;;10.10;99.90;;;;;;4941143;29;20407;-91
2022/03/01 06:24:54;;;;;;;;;;;10.00;99.90;;;;;;4943549;28;19910;-94
2022/03/01 06:27:31;;;;;;;;;;;10.00;99.90;;;;;;4947012;29;20303;-93
2022/03/01 06:29:59;;;;;;;;;;;9.90;99.90;;;;;;4952923;28;20279;-92
2022/03/01 06:32:29;;;;;;;;;;;9.90;99.90;;;;;;4949068;29;19923;-92
2022/03/01 06:34:55;;;;;;;;;;;9.90;99.90;;;;;;4946207;29;19914;-91
2022/03/01 06:37:20;;;;;;;;;;;9.90;99.90;;;;;;4959560;28;19911;-91
2022/03/01 06:39:47;;;;;;;;;;;9.80;99.90;;;;;;4944011;28;19911;-93
2022/03/01 06:42:13;;;;;;;;;;;9.80;99.90;;;;;;4947026;29;20438;-91
2022/03/01 06:44:39;;;;;;;;;;;9.80;99.90;;;;;;4960564;28;19953;-91
2022/03/01 06:47:30;;;;;;;;;;;9.90;99.90;;;;;;4958595;28;19914;-94
2022/03/01 06:50:09;;;;;;;;;;;9.90;99.90;;;;;;4958567;28;19917;-94
2022/03/01 06:53:21;;;;;;;;;;;;;;;;;;;;;
2022/03/01 06:58:55;;;;;;;;;;;9.90;99.90;;;;;;4949912;28;19918;-93
2022/03/01 07:01:39;;;;;;;;;;;;;;;;;;;;;
2022/03/01 07:04:38;;;;;;;;;;;;;;;;;;;;;
2022/03/01 07:07:22;;;;;;;;;;;10.00;99.90;;;;;;4958789;28;19978;-96
2022/03/01 07:10:11;;;;;;;;;;;9.90;99.90;;;;;;4955353;28;20331;-96
2022/03/01 07:12:42;;;;;;;;;;;10.00;99.90;;;;;;4957827;28;19929;-93
2022/03/01 07:15:38;;;;;;;;;;;;;;;;;;;;;
2022/03/01 07:18:15;;;;;;;;;;;10.20;99.90;;;;;;4972130;28;20008;-94
2022/03/01 07:20:43;;;;;;;;;;;10.20;99.90;;;;;;4977960;28;19960;-94
2022/03/01 07:26:01;;;;;;;;;;;10.30;99.90;;;;;;4961969;29;19914;-94
2022/03/01 07:28:30;;;;;;;;;;;10.30;99.90;;;;;;4949443;29;19941;-94
2022/03/01 07:31:07;;;;;;;;;;;10.40;99.90;;;;;;4964923;28;19914;-93
2022/03/01 07:33:43;;;;;;;;;;;;;;;;;;;;;
2022/03/01 07:36:14;;;;;;;;;;;10.40;99.90;;;;;;4962238;28;19911;-93
2022/03/01 07:38:42;;;;;;;;;;;10.40;99.90;;;;;;4955897;28;19910;-94
2022/03/01 07:41:13;;;;;;;;;;;10.40;99.90;;;;;;4968490;28;19950;-94
2022/03/01 07:43:39;;;;;;;;;;;10.50;99.90;;;;;;4992597;28;19914;-94
2022/03/01 07:46:10;;;;;;;;;;;10.50;99.90;;;;;;4973431;28;19911;-94
2022/03/01 07:48:39;;;;;;;;;;;10.60;99.90;;;;;;4957724;28;19957;-93
2022/03/01 07:51:07;;;;;;;;;;;10.70;99.90;;;;;;4964214;28;19942;-94
2022/03/01 07:53:33;;;;;;;;;;;10.70;99.90;;;;;;4982199;28;19917;-93
2022/03/01 07:56:07;;;;;;;;;;;10.70;99.90;;;;;;4947893;28;19910;-93
2022/03/01 07:58:44;;;;;;;;;;;10.80;99.90;;;;;;4957566;28;19924;-94
2022/03/01 08:01:10;;;;;;;;;;;10.80;99.90;;;;;;4959034;28;19915;-93
2022/03/01 08:03:40;;;;;;;;;;;10.80;99.90;;;;;;4972737;28;20020;-94
2022/03/01 08:06:11;;;;;;;;;;;10.90;99.90;;;;;;4946067;29;19950;-93
2022/03/01 08:08:43;;;;;;;;;;;11.00;99.90;;;;;;4961245;28;19910;-93
2022/03/01 08:11:11;;;;;;;;;;;11.00;99.90;;;;;;4944825;29;19983;-93
2022/03/01 08:13:48;;;;;;;;;;;11.20;99.90;;;;;;4947154;29;19918;-94
2022/03/01 08:16:16;;;;;;;;;;;11.20;99.90;;;;;;4938952;29;19926;-93
2022/03/01 08:18:43;;;;;;;;;;;11.40;99.90;;;;;;4938750;29;19910;-94
2022/03/01 08:21:16;;;;;;;;;;;11.50;99.90;;;;;;4956417;28;19920;-93
2022/03/01 08:23:42;;;;;;;;;;;11.40;99.90;;;;;;4944102;28;19945;-94
2022/03/01 08:26:13;;;;;;;;;;;11.50;99.90;;;;;;4956824;28;19918;-93
2022/03/01 08:28:49;;;;;;;;;;;11.50;99.90;;;;;;4944089;28;19911;-92
2022/03/01 08:31:42;;;;;;;;;;;11.50;99.90;;;;;;4932538;28;19918;-93
2022/03/01 08:34:20;;;;;;;;;;;;;;;;;;;;;
2022/03/01 08:36:59;;;;;;;;;;;11.60;99.90;;;;;;4955505;28;19911;-94
2022/03/01 08:39:24;;;;;;;;;;;11.70;99.90;;;;;;4938504;28;19942;-94
2022/03/01 08:41:55;;;;;;;;;;;11.70;99.90;;;;;;4938080;28;19949;-94
2022/03/01 08:44:29;;;;;;;;;;;11.80;99.90;;;;;;4944462;28;20394;-94
2022/03/01 08:47:03;;;;;;;;;;;11.80;99.90;;;;;;4945184;28;19914;-94
2022/03/01 08:50:00;;;;;;;;;;;11.80;99.90;;;;;;4948109;28;20009;-95
2022/03/01 08:52:51;;;;;;;;;;;11.90;99.90;;;;;;4943710;28;20142;-93
2022/03/01 08:55:17;;;;;;;;;;;11.90;99.90;;;;;;4962372;28;19911;-93
2022/03/01 08:57:59;;;;;;;;;;;12.10;99.90;;;;;;4940170;28;20001;-93
2022/03/01 09:00:41;;;;;;;;;;;12.20;99.90;;;;;;4956050;28;19910;-93
2022/03/01 09:05:56;;;;;;;;;;;12.30;99.90;;;;;;4964413;28;20005;-94
2022/03/01 09:08:27;;;;;;;;;;;12.40;99.90;;;;;;4947647;28;19907;-94
2022/03/01 09:10:55;;;;;;;;;;;12.40;99.90;;;;;;4950857;28;19927;-94
2022/03/01 09:13:45;;;;;;;;;;;12.40;99.90;;;;;;4955671;28;20422;-94
2022/03/01 09:16:25;;;;;;;;;;;12.50;99.90;;;;;;4972859;28;19910;-93
2022/03/01 09:19:08;;;;;;;;;;;12.60;99.90;;;;;;4960716;28;19939;-93
2022/03/01 09:22:02;;;;;;;;;;;12.60;99.90;;;;;;4956700;28;19918;-93
2022/03/01 09:27:36;;;;;;;;;;;13.00;99.90;;;;;;4956771;28;19922;-93
2022/03/01 09:33:15;;;;;;;;;;;13.10;99.90;;;;;;4960499;28;19918;-93
2022/03/01 09:35:53;;;;;;;;;;;13.20;99.90;;;;;;4962659;28;20299;-93
2022/03/01 09:38:29;;;;;;;;;;;13.40;99.90;;;;;;4962448;28;20287;-94
2022/03/01 09:41:00;;;;;;;;;;;13.30;99.90;;;;;;4975655;28;19910;-94
2022/03/01 09:43:42;;;;;;;;;;;13.40;99.90;;;;;;4962125;28;19914;-95
2022/03/01 09:46:21;;;;;;;;;;;13.50;99.90;;;;;;4966296;28;19910;-95
2022/03/01 09:49:09;;;;;;;;;;;13.50;99.90;;;;;;4962264;28;19925;-96
2022/03/01 09:51:53;;;;;;;;;;;13.70;99.90;;;;;;4961728;28;19918;-93
2022/03/01 10:00:27;;;;;;;;;;;13.80;99.90;;;;;;4966913;28;19921;-94
2022/03/01 10:02:59;;;;;;;;;;;13.80;99.90;;;;;;4973891;28;19910;-93
2022/03/01 10:05:52;;;;;;;;;;;13.90;99.90;;;;;;4963222;28;19911;-96
2022/03/01 10:08:27;;;;;;;;;;;14.00;99.90;;;;;;4974137;28;19973;-94
2022/03/01 10:11:06;;;;;;;;;;;14.10;99.90;;;;;;4965664;28;19930;-93
2022/03/01 10:13:43;;;;;;;;;;;;;;;;;;;;;
2022/03/01 10:22:31;;;;;;;;;;;14.30;99.90;;;;;;4979108;28;19910;-93
2022/03/01 10:25:17;;;;;;;;;;;14.40;99.90;;;;;;4961910;28;20279;-94
2022/03/01 10:28:00;;;;;;;;;;;;;;;;;;;;;
2022/03/01 10:30:37;;;;;;;;;;;14.80;99.90;;;;;;4966968;28;19910;-94
2022/03/01 10:33:42;;;;;;;;;;;;;;;;;;;;;
2022/03/01 10:36:21;;;;;;;;;;;14.90;99.90;;;;;;4894786;28;19917;-94
2022/03/01 10:39:42;;;;;;;;;;;15.00;99.90;;;;;;4956614;28;19917;-93
2022/03/01 10:42:43;;;;;;;;;;;15.30;99.90;;;;;;4898127;28;19914;-94
2022/03/01 10:45:39;;;;;;;;;;;;;;;;;;;;;
2022/03/01 10:51:23;;;;;;;;;;;15.50;99.90;;;;;;4932267;28;19922;-95
2022/03/01 10:54:21;;;;;;;;;;;15.40;99.90;;;;;;4955775;28;19910;-94
2022/03/01 10:57:28;;;;;;;;;;;;;;;;;;;;;
2022/03/01 11:00:37;;;;;;;;;;;;;;;;;;;;;
2022/03/01 11:15:40;;;;;;;;;;;16.50;99.90;;;;;;4926254;28;20061;-93
2022/03/01 11:18:19;;;;;;;;;;;17.00;99.90;;;;;;4952386;28;19910;-92
2022/03/01 11:20:49;;;;;;;;;;;16.80;99.90;;;;;;4951474;28;19913;-92
2022/03/01 11:23:18;;;;;;;;;;;17.00;99.90;;;;;;4939529;28;19937;-92
2022/03/01 11:25:47;;;;;;;;;;;17.00;99.90;;;;;;4940816;28;20012;-91
2022/03/01 11:28:15;;;;;;;;;;;16.70;99.90;;;;;;4939648;29;19981;-93
2022/03/01 11:30:52;;;;;;;;;;;16.70;99.90;;;;;;4938931;28;19914;-92
2022/03/01 11:33:28;;;;;;;;;;;17.00;99.90;;;;;;4938810;29;20378;-91
2022/03/01 11:35:57;;;;;;;;;;;17.10;99.90;;;;;;4938990;29;19954;-94
2022/03/01 11:38:42;;;;;;;;;;;17.10;99.90;;;;;;4938818;29;19917;-95
2022/03/01 11:41:10;;;;;;;;;;;17.30;99.90;;;;;;4934070;28;20335;-93
2022/03/01 11:43:43;;;;;;;;;;;17.60;99.90;;;;;;4955254;28;19962;-92
2022/03/01 11:46:27;;;;;;;;;;;17.70;99.90;;;;;;4958344;28;19957;-93
2022/03/01 11:48:56;;;;;;;;;;;17.50;99.90;;;;;;4957982;28;20343;-93
2022/03/01 11:51:32;;;;;;;;;;;17.50;99.90;;;;;;4946972;29;19921;-94
2022/03/01 11:54:00;;;;;;;;;;;17.30;99.90;;;;;;4948743;28;19906;-92
2022/03/01 11:56:25;;;;;;;;;;;17.30;99.90;;;;;;4967123;28;19960;-94
2022/03/01 11:58:51;;;;;;;;;;;17.20;99.90;;;;;;4961654;28;19910;-93
2022/03/01 12:01:20;;;;;;;;;;;17.20;99.90;;;;;;4967530;28;19914;-92
2022/03/01 12:03:52;;;;;;;;;;;17.30;99.90;;;;;;4959031;29;20005;-94
2022/03/01 12:06:20;;;;;;;;;;;17.30;99.90;;;;;;4942818;28;19972;-91
2022/03/01 12:08:48;;;;;;;;;;;17.30;99.90;;;;;;4939569;29;20384;-96
2022/03/01 12:11:30;;;;;;;;;;;17.10;99.90;;;;;;4952615;28;19997;-94
2022/03/01 12:14:01;;;;;;;;;;;17.10;99.90;;;;;;4961208;28;19953;-93
2022/03/01 12:16:30;;;;;;;;;;;17.10;99.90;;;;;;4943845;28;19911;-92
2022/03/01 12:19:16;;;;;;;;;;;17.30;99.90;;;;;;4937842;28;19965;-93
2022/03/01 12:21:50;;;;;;;;;;;17.20;99.90;;;;;;4954127;28;20056;-93
2022/03/01 12:24:16;;;;;;;;;;;17.20;99.90;;;;;;4937526;29;19918;-93
2022/03/01 12:26:51;;;;;;;;;;;17.40;99.90;;;;;;4940870;28;19910;-93
2022/03/01 12:29:19;;;;;;;;;;;17.20;99.90;;;;;;4956218;28;20299;-94
2022/03/01 12:31:54;;;;;;;;;;;17.10;99.90;;;;;;4950433;28;20371;-95
2022/03/01 12:34:26;;;;;;;;;;;17.00;99.90;;;;;;4941677;29;19911;-92
2022/03/01 12:36:56;;;;;;;;;;;17.10;99.90;;;;;;4946817;29;19934;-94
2022/03/01 12:39:25;;;;;;;;;;;17.10;99.90;;;;;;4953877;28;19917;-95
2022/03/01 12:41:53;;;;;;;;;;;17.20;99.90;;;;;;4956340;28;19910;-94
2022/03/01 12:44:19;;;;;;;;;;;17.20;99.90;;;;;;4943995;28;19910;-93
2022/03/01 12:46:50;;;;;;;;;;;17.00;99.90;;;;;;4947068;28;19910;-94
2022/03/01 12:49:18;;;;;;;;;;;17.10;99.90;;;;;;4960215;28;19910;-93
2022/03/01 12:51:50;;;;;;;;;;;17.20;99.90;;;;;;4956572;28;19918;-92
2022/03/01 12:54:20;;;;;;;;;;;17.00;99.90;;;;;;4954853;28;20397;-92
2022/03/01 12:56:50;;;;;;;;;;;16.90;99.90;;;;;;4947904;28;19910;-92
2022/03/01 12:59:21;;;;;;;;;;;16.90;99.90;;;;;;4937609;28;19954;-94
2022/03/01 13:01:48;;;;;;;;;;;17.00;99.90;;;;;;4937675;28;19911;-92
2022/03/01 13:04:23;;;;;;;;;;;17.20;99.90;;;;;;4937111;28;20287;-95
2022/03/01 13:06:48;;;;;;;;;;;17.40;99.90;;;;;;4938969;28;19911;-92
2022/03/01 13:09:22;;;;;;;;;;;17.50;99.90;;;;;;4955796;28;19921;-92
2022/03/01 13:11:47;;;;;;;;;;;17.70;99.90;;;;;;4939932;28;19933;-92
2022/03/01 13:14:18;;;;;;;;;;;17.70;99.90;;;;;;4936876;29;19910;-95
2022/03/01 13:16:48;;;;;;;;;;;17.90;99.90;;;;;;4949234;28;19937;-95
2022/03/01 13:19:15;;;;;;;;;;;17.90;99.90;;;;;;4939417;28;19910;-93
2022/03/01 13:21:46;;;;;;;;;;;18.10;99.90;;;;;;4948775;28;19910;-94
2022/03/01 13:24:19;;;;;;;;;;;18.10;99.90;;;;;;4946112;29;19914;-95
2022/03/01 13:26:45;;;;;;;;;;;18.00;99.90;;;;;;4949271;29;19918;-92
2022/03/01 13:29:13;;;;;;;;;;;17.90;99.90;;;;;;4947229;28;20009;-94
2022/03/01 13:31:49;;;;;;;;;;;18.00;99.90;;;;;;4938858;29;19925;-93
2022/03/01 13:34:17;;;;;;;;;;;17.90;99.90;;;;;;4939771;29;19910;-94
2022/03/01 13:36:50;;;;;;;;;;;17.90;99.90;;;;;;4955327;29;19944;-92
2022/03/01 13:39:22;;;;;;;;;;;18.00;99.90;;;;;;4943830;29;19911;-94
2022/03/01 13:41:51;;;;;;;;;;;18.10;99.90;;;;;;4936985;29;19910;-92
2022/03/01 13:44:27;;;;;;;;;;;18.30;99.90;;;;;;4942996;28;19911;-94
2022/03/01 13:46:55;;;;;;;;;;;18.50;99.90;;;;;;4955234;28;19934;-94
2022/03/01 13:49:29;;;;;;;;;;;18.60;99.90;;;;;;4942692;28;19911;-92
2022/03/01 13:52:05;;;;;;;;;;;18.60;99.90;;;;;;4950998;28;19929;-94
2022/03/01 13:54:33;;;;;;;;;;;18.70;99.90;;;;;;4956129;28;19910;-94
2022/03/01 13:56:59;;;;;;;;;;;18.90;99.90;;;;;;4955331;28;19921;-94
2022/03/01 13:59:25;;;;;;;;;;;19.10;99.90;;;;;;4962848;28;19910;-94
2022/03/01 14:01:58;;;;;;;;;;;19.10;99.90;;;;;;4967277;28;20201;-93
2022/03/01 14:04:24;;;;;;;;;;;19.30;99.90;;;;;;4954941;28;19914;-95
2022/03/01 14:07:01;;;;;;;;;;;19.50;99.90;;;;;;4956073;28;19969;-93
2022/03/01 14:09:34;;;;;;;;;;;19.70;99.90;;;;;;4958626;28;20162;-93
2022/03/01 14:12:05;;;;;;;;;;;19.50;99.90;;;;;;4958367;28;19954;-93
2022/03/01 14:14:50;;;;;;;;;;;19.40;99.90;;;;;;4968553;28;19917;-94
2022/03/01 14:17:20;;;;;;;;;;;19.40;99.90;;;;;;4939938;28;19962;-94
2022/03/01 14:20:12;;;;;;;;;;;19.30;99.90;;;;;;4940730;28;20383;-95
2022/03/01 14:22:41;;;;;;;;;;;19.50;99.90;;;;;;4957099;28;19965;-94
2022/03/01 14:25:09;;;;;;;;;;;19.50;99.90;;;;;;4966958;28;19913;-93
2022/03/01 14:27:56;;;;;;;;;;;19.80;99.90;;;;;;4958668;28;19917;-94
2022/03/01 14:30:26;;;;;;;;;;;20.20;99.90;;;;;;4964133;28;19910;-93
2022/03/01 14:33:00;;;;;;;;;;;20.80;99.00;;;;;;4953173;28;19918;-94
2022/03/01 14:35:34;;;;;;;;;;;20.80;98.40;;;;;;4973193;28;19917;-93
2022/03/01 14:38:05;;;;;;;;;;;20.70;98.80;;;;;;4954033;28;20053;-92
2022/03/01 14:40:31;;;;;;;;;;;20.70;98.40;;;;;;4958437;28;20154;-93
2022/03/01 14:42:57;;;;;;;;;;;20.50;98.70;;;;;;4945908;28;19917;-94
2022/03/01 14:45:31;;;;;;;;;;;20.60;98.60;;;;;;4961865;28;20311;-93
2022/03/01 14:48:06;;;;;;;;;;;20.40;98.40;;;;;;4943220;28;19910;-94
2022/03/01 14:50:44;;;;;;;;;;;20.10;98.50;;;;;;4945929;29;20442;-93
2022/03/01 14:53:12;;;;;;;;;;;20.00;98.50;;;;;;4956526;28;19964;-94
2022/03/01 14:55:38;;;;;;;;;;;19.40;99.00;;;;;;4951924;28;19922;-93
2022/03/01 14:58:04;;;;;;;;;;;18.90;99.70;;;;;;4963445;28;19922;-93
2022/03/01 15:00:33;;;;;;;;;;;18.90;99.90;;;;;;4950530;28;19918;-92
2022/03/01 15:02:59;;;;;;;;;;;18.80;99.80;;;;;;4948942;28;19993;-92
2022/03/01 15:05:25;;;;;;;;;;;19.20;99.90;;;;;;4960920;28;20409;-92
2022/03/01 15:07:50;;;;;;;;;;;19.40;99.10;;;;;;4941884;29;19986;-93
2022/03/01 15:10:20;;;;;;;;;;;19.70;99.00;;;;;;4958647;28;19969;-94
2022/03/01 15:12:54;;;;;;;;;;;19.80;98.10;;;;;;4957662;28;19976;-93
2022/03/01 15:15:23;;;;;;;;;;;19.90;98.60;;;;;;4951295;28;19910;-93
2022/03/01 15:17:48;;;;;;;;;;;20.00;97.70;;;;;;4957280;28;19910;-93
2022/03/01 15:20:15;;;;;;;;;;;20.00;97.90;;;;;;4962403;28;19915;-94
2022/03/01 15:22:41;;;;;;;;;;;20.20;97.40;;;;;;4949896;28;19910;-93
2022/03/01 15:25:10;;;;;;;;;;;20.30;97.30;;;;;;4950241;29;19951;-92
2022/03/01 15:27:39;;;;;;;;;;;20.40;97.40;;;;;;4960796;28;19910;-94
2022/03/01 15:30:06;;;;;;;;;;;20.70;96.80;;;;;;4951907;28;19910;-92